Time;durP1;ratioP1;P1;durP2;ratioP2;P2;SDS_P1;SDS_P2;PMS_P1;PMS_P2;Temp;Humidity;BMP_temperature;BMP_pressure;BME280_temperature;BME280_humidity;BME280_pressure;Samples;Min_cycle;Max_cycle;Signal;HPM_P1;HPM_P2
2022/06/24 00:02:19;;;;;;;;;4.50;4.50;;;;;24.81;45.68;100179.03;5080727;27;46034;-63
2022/06/24 00:04:51;;;;;;;;;6.75;5.00;;;;;24.76;45.54;100181.47;5073220;27;45568;-64
2022/06/24 00:07:18;;;;;;;;;6.00;6.00;;;;;24.66;47.31;100179.88;5108263;27;45332;-66
2022/06/24 00:09:44;;;;;;;;;6.25;5.00;;;;;24.62;48.23;100183.16;5078338;27;45574;-63
2022/06/24 00:12:18;;;;;;;;;5.00;3.50;;;;;24.53;47.83;100168.81;5075112;27;46307;-61
2022/06/24 00:14:55;;;;;;;;;4.80;4.80;;;;;24.50;48.74;100192.81;5073587;28;45322;-63
2022/06/24 00:17:20;;;;;;;;;5.00;5.00;;;;;24.39;49.71;100199.53;5064790;27;45433;-63
2022/06/24 00:19:57;;;;;;;;;8.25;6.75;;;;;24.35;50.35;100203.63;5076909;27;45417;-62
2022/06/24 00:22:24;;;;;;;;;5.00;5.00;;;;;24.27;50.25;100187.41;5071826;27;45440;-64
2022/06/24 00:25:09;;;;;;;;;6.50;6.50;;;;;24.24;49.62;100195.91;5074288;27;45457;-64
2022/06/24 00:27:35;;;;;;;;;7.25;5.75;;;;;24.21;50.20;100191.66;5071963;27;45520;-63
2022/06/24 00:30:07;;;;;;;;;4.75;4.75;;;;;24.11;50.84;100188.41;5076177;27;45662;-64
2022/06/24 00:32:33;;;;;;;;;5.25;5.25;;;;;24.07;50.44;100190.59;5074047;27;45704;-62
2022/06/24 00:35:09;;;;;;;;;5.00;5.00;;;;;24.07;50.72;100181.63;5076260;27;45925;-67
2022/06/24 00:37:36;;;;;;;;;5.00;5.00;;;;;24.03;51.03;100183.03;5074941;27;45334;-63
2022/06/24 00:40:11;;;;;;;;;5.00;5.00;;;;;24.01;51.47;100188.63;5074579;27;45599;-64
2022/06/24 00:42:42;;;;;;;;;3.50;3.50;;;;;23.98;51.23;100188.16;5076971;27;46505;-67
2022/06/24 00:45:16;;;;;;;;;6.00;5.00;;;;;23.95;51.01;100191.22;5074658;27;45501;-63
2022/06/24 00:47:43;;;;;;;;;6.00;6.00;;;;;23.92;51.41;100194.31;5072345;27;45441;-64
2022/06/24 00:50:28;;;;;;;;;5.25;5.25;;;;;23.86;51.48;100197.75;5075976;27;45526;-64
2022/06/24 00:52:57;;;;;;;;;4.00;4.00;;;;;23.80;51.10;100194.72;5073310;27;45516;-63
2022/06/24 00:55:26;;;;;;;;;4.00;4.00;;;;;23.74;51.57;100200.91;5072856;27;45478;-64
2022/06/24 00:57:52;;;;;;;;;4.00;4.00;;;;;23.70;51.28;100191.44;5077045;27;45365;-66
2022/06/24 01:00:18;;;;;;;;;5.50;4.50;;;;;23.70;51.45;100187.84;5077291;27;45569;-62
2022/06/24 01:02:46;;;;;;;;;3.50;3.25;;;;;23.64;51.05;100191.28;5068167;27;46882;-63
2022/06/24 01:05:12;;;;;;;;;5.75;5.00;;;;;23.63;50.82;100189.59;5075154;27;45546;-62
2022/06/24 01:07:41;;;;;;;;;4.00;4.00;;;;;23.61;51.03;100194.38;5080333;27;45460;-62
2022/06/24 01:10:09;;;;;;;;;3.75;3.75;;;;;23.55;51.44;100190.47;5073252;28;45587;-64
2022/06/24 01:12:35;;;;;;;;;4.25;4.25;;;;;23.54;51.25;100186.91;5075665;27;45828;-65
2022/06/24 01:15:02;;;;;;;;;5.25;5.25;;;;;23.54;51.61;100186.06;5073555;27;45242;-63
2022/06/24 01:17:28;;;;;;;;;4.00;4.00;;;;;23.50;51.66;100182.88;5075484;27;45503;-63
2022/06/24 01:19:53;;;;;;;;;6.00;4.75;;;;;23.47;51.24;100177.81;5074555;27;45447;-64
2022/06/24 01:22:26;;;;;;;;;4.50;4.25;;;;;23.44;51.67;100177.34;5073109;27;45489;-62
2022/06/24 01:24:52;;;;;;;;;6.00;6.00;;;;;23.41;51.78;100170.38;5075039;27;45385;-64
2022/06/24 01:27:18;;;;;;;;;5.50;5.00;;;;;23.42;51.87;100166.63;5075339;27;45343;-64
2022/06/24 01:29:44;;;;;;;;;6.50;5.00;;;;;23.41;52.06;100166.81;5072761;27;45460;-63
2022/06/24 01:32:10;;;;;;;;;5.00;5.00;;;;;23.43;52.09;100175.59;5074798;27;45452;-63
2022/06/24 01:34:35;;;;;;;;;6.00;6.00;;;;;23.33;52.07;100175.84;5073971;27;45295;-62
2022/06/24 01:37:01;;;;;;;;;6.25;4.25;;;;;23.33;51.76;100175.00;5075428;27;45591;-63
2022/06/24 01:39:27;;;;;;;;;7.00;4.50;;;;;23.33;51.94;100170.44;5074921;27;45626;-62
2022/06/24 01:41:52;;;;;;;;;15.00;12.67;;;;;23.35;52.23;100184.66;5074830;27;46083;-63
2022/06/24 01:44:19;;;;;;;;;7.75;5.25;;;;;23.36;51.97;100197.22;5080607;27;45322;-64
2022/06/24 01:46:44;;;;;;;;;3.50;3.00;;;;;23.30;52.09;100203.31;5069008;27;45531;-62
2022/06/24 01:49:10;;;;;;;;;4.50;4.50;;;;;23.23;53.79;100202.38;5070969;27;45500;-64
2022/06/24 01:51:39;;;;;;;;;5.00;5.00;;;;;23.09;54.30;100219.38;5072871;27;45988;-61
2022/06/24 01:54:05;;;;;;;;;5.00;5.00;;;;;22.96;55.09;100225.38;5072044;27;45436;-62
2022/06/24 01:56:31;;;;;;;;;4.25;4.25;;;;;22.86;56.89;100222.00;5072725;27;45470;-61
2022/06/24 01:58:56;;;;;;;;;6.50;5.00;;;;;22.58;61.03;100235.09;5075640;27;45507;-62
2022/06/24 02:01:21;;;;;;;;;7.00;4.00;;;;;22.29;59.52;100225.66;5074445;27;47074;-63
2022/06/24 02:03:47;;;;;;;;;5.33;4.00;;;;;22.12;61.46;100223.94;5074393;27;45388;-64
2022/06/24 02:06:13;;;;;;;;;6.67;4.67;;;;;21.99;62.41;100212.72;5073877;27;45563;-63
2022/06/24 02:08:40;;;;;;;;;5.33;5.33;;;;;21.90;62.16;100208.34;5061091;27;45654;-64
2022/06/24 02:13:51;;;;;;;;;7.00;6.00;;;;;21.62;61.24;100205.09;5071970;27;45527;-64
2022/06/24 02:16:21;;;;;;;;;5.00;5.00;;;;;21.51;62.47;100203.56;5071362;27;47349;-63
2022/06/24 02:18:47;;;;;;;;;7.00;5.00;;;;;21.41;62.40;100200.13;5059917;28;46388;-63
2022/06/24 02:21:14;;;;;;;;;5.00;5.00;;;;;21.34;62.93;100196.38;5068287;27;46676;-63
2022/06/24 02:23:41;;;;;;;;;9.00;6.67;;;;;21.28;62.96;100197.06;5073288;27;45266;-63
2022/06/24 02:26:06;;;;;;;;;5.00;4.00;;;;;21.23;62.24;100191.28;5073071;27;45341;-64
2022/06/24 02:28:31;;;;;;;;;5.00;5.00;;;;;21.14;63.10;100195.81;5087331;27;45550;-64
2022/06/24 02:30:59;;;;;;;;;5.00;5.00;;;;;21.12;63.33;100212.19;5072685;27;45968;-63
2022/06/24 02:33:26;;;;;;;;;5.00;5.00;;;;;21.12;62.37;100214.06;5071693;27;45570;-63
2022/06/24 02:35:51;;;;;;;;;5.00;5.00;;;;;21.09;62.06;100220.59;5073407;27;45768;-64
2022/06/24 02:38:17;;;;;;;;;5.00;5.00;;;;;20.98;67.97;100218.22;5072108;27;45778;-62
2022/06/24 02:40:45;;;;;;;;;7.00;5.67;;;;;20.81;68.96;100216.44;5073293;28;45230;-62
2022/06/24 02:43:13;;;;;;;;;7.00;6.00;;;;;20.56;71.47;100205.47;5079757;27;45639;-63
2022/06/24 02:45:39;;;;;;;;;3.67;3.67;;;;;20.39;70.60;100194.69;5075616;27;45432;-63
2022/06/24 02:48:06;;;;;;;;;6.00;5.00;;;;;20.34;72.41;100189.78;5071396;27;45590;-63
2022/06/24 02:50:36;;;;;;;;;5.00;4.67;;;;;20.28;71.42;100171.50;5073871;27;46314;-62
2022/06/24 02:53:02;;;;;;;;;4.00;4.00;;;;;20.27;72.22;100175.22;5071771;27;45463;-62
2022/06/24 02:55:27;;;;;;;;;5.00;4.00;;;;;20.20;72.16;100176.88;5075031;27;45382;-62
2022/06/24 02:57:53;;;;;;;;;2.67;2.67;;;;;20.20;71.33;100184.97;5073198;27;45499;-62
2022/06/24 03:00:18;;;;;;;;;5.00;5.00;;;;;20.23;71.30;100184.63;5080195;27;46406;-62
2022/06/24 03:02:44;;;;;;;;;4.00;4.00;;;;;20.24;70.90;100175.53;5073788;27;45908;-62
2022/06/24 03:05:10;;;;;;;;;4.33;4.33;;;;;20.24;70.03;100180.94;5074050;27;45469;-62
2022/06/24 03:07:35;;;;;;;;;4.00;4.00;;;;;20.25;69.66;100185.31;5077028;27;45619;-64
2022/06/24 03:10:01;;;;;;;;;4.00;4.00;;;;;20.23;69.41;100179.25;5071072;27;46134;-62
2022/06/24 03:12:26;;;;;;;;;4.00;3.33;;;;;20.19;69.31;100178.72;5075468;27;45487;-63
2022/06/24 03:14:51;;;;;;;;;4.00;4.00;;;;;20.22;71.05;100170.28;5077672;27;45236;-63
2022/06/24 03:17:17;;;;;;;;;5.67;5.00;;;;;20.23;70.40;100165.75;5077934;27;45481;-62
2022/06/24 03:19:42;;;;;;;;;3.33;3.33;;;;;20.23;69.55;100166.59;5076213;27;45392;-61
2022/06/24 03:22:08;;;;;;;;;4.00;4.00;;;;;20.24;69.37;100170.13;5076487;27;45354;-61
2022/06/24 03:24:33;;;;;;;;;4.00;4.00;;;;;20.23;69.31;100171.97;5075515;27;45413;-62
2022/06/24 03:26:58;;;;;;;;;4.00;4.00;;;;;20.23;69.89;100161.19;5075377;27;45226;-62
2022/06/24 03:29:24;;;;;;;;;7.00;4.33;;;;;20.22;68.64;100158.66;5076519;27;46032;-63
2022/06/24 03:31:49;;;;;;;;;5.67;4.33;;;;;20.23;69.50;100165.75;5074806;27;45493;-62
2022/06/24 03:34:14;;;;;;;;;2.33;2.33;;;;;20.26;68.31;100168.13;5074716;27;46014;-63
2022/06/24 03:36:40;;;;;;;;;2.33;2.33;;;;;20.17;68.92;100158.25;5078027;27;45532;-62
2022/06/24 03:39:06;;;;;;;;;3.00;3.00;;;;;20.26;68.79;100168.13;5076098;27;46385;-63
2022/06/24 03:41:33;;;;;;;;;4.00;3.33;;;;;20.25;69.68;100167.28;5076414;27;45465;-62
2022/06/24 03:44:00;;;;;;;;;4.00;4.00;;;;;20.28;69.94;100163.41;5074267;27;45373;-63
2022/06/24 03:46:25;;;;;;;;;3.00;3.00;;;;;20.28;69.46;100160.69;5075289;27;45524;-63
2022/06/24 03:48:50;;;;;;;;;4.00;4.00;;;;;20.28;68.46;100161.53;5076517;27;46334;-63
2022/06/24 03:51:16;;;;;;;;;5.00;5.00;;;;;20.27;69.69;100164.41;5076474;27;45539;-62
2022/06/24 03:53:41;;;;;;;;;5.33;4.33;;;;;20.28;70.04;100163.41;5076223;27;45499;-63
2022/06/24 03:56:10;;;;;;;;;3.33;3.33;;;;;20.27;69.79;100156.31;5076497;27;45296;-63
2022/06/24 03:58:35;;;;;;;;;3.00;3.00;;;;;20.24;68.69;100159.34;5074341;27;45388;-63
2022/06/24 04:01:01;;;;;;;;;5.00;5.00;;;;;20.20;69.39;100157.97;5079502;27;45335;-63
2022/06/24 04:03:27;;;;;;;;;4.33;3.00;;;;;20.17;69.40;100159.09;5075355;27;45769;-62
2022/06/24 04:05:53;;;;;;;;;4.00;4.00;;;;;20.15;70.64;100149.47;5080177;27;45635;-63
2022/06/24 04:08:18;;;;;;;;;4.00;4.00;;;;;20.12;69.94;100144.41;5077578;27;45413;-63
2022/06/24 04:10:43;;;;;;;;;4.67;4.67;;;;;20.10;69.87;100151.81;5075316;27;45370;-63
2022/06/24 04:13:09;;;;;;;;;3.67;3.67;;;;;20.01;70.14;100146.34;5075221;27;45500;-62
2022/06/24 04:15:34;;;;;;;;;5.00;5.00;;;;;20.08;69.77;100162.78;5075167;27;45635;-63
2022/06/24 04:17:59;;;;;;;;;3.00;3.00;;;;;20.07;69.33;100165.63;5075526;27;46785;-63
2022/06/24 04:20:25;;;;;;;;;4.00;4.00;;;;;20.02;70.14;100166.94;5075297;27;45451;-63
2022/06/24 04:22:50;;;;;;;;;4.67;4.67;;;;;20.02;70.78;100171.47;5075988;27;45390;-62
2022/06/24 04:25:16;;;;;;;;;6.00;4.00;;;;;20.01;71.03;100170.63;5075397;27;45722;-62
2022/06/24 04:27:42;;;;;;;;;4.00;4.00;;;;;19.98;70.62;100170.94;5072345;27;45521;-62
2022/06/24 04:30:10;;;;;;;;;5.00;3.33;;;;;19.97;70.71;100158.47;5075433;27;47346;-63
2022/06/24 04:32:35;;;;;;;;;6.33;5.00;;;;;20.01;70.60;100172.47;5073044;27;46106;-63
2022/06/24 04:35:01;;;;;;;;;4.67;4.67;;;;;19.98;70.68;100172.81;5075926;27;45519;-62
2022/06/24 04:37:26;;;;;;;;;3.00;3.00;;;;;19.99;70.34;100178.03;5087031;27;45949;-63
2022/06/24 04:39:52;;;;;;;;;6.33;4.67;;;;;20.01;70.66;100178.72;5074301;27;45517;-62
2022/06/24 04:42:17;;;;;;;;;6.67;6.67;;;;;20.00;70.51;100168.09;5074925;27;46687;-63
2022/06/24 04:44:44;;;;;;;;;7.00;6.67;;;;;20.00;71.25;100168.94;5075905;27;45663;-63
2022/06/24 04:47:09;;;;;;;;;6.67;5.33;;;;;20.04;71.50;100183.81;5077250;27;46402;-61
2022/06/24 04:49:35;;;;;;;;;5.00;5.00;;;;;20.11;71.08;100183.19;5075781;27;45475;-62
2022/06/24 04:52:00;;;;;;;;;4.00;4.00;;;;;20.20;70.74;100182.25;5074470;27;45327;-62
2022/06/24 04:54:26;;;;;;;;;3.33;3.33;;;;;20.23;71.33;100185.50;5075035;27;45439;-62
2022/06/24 04:56:51;;;;;;;;;5.33;5.00;;;;;20.28;70.81;100176.91;5076123;27;46819;-63
2022/06/24 04:59:16;;;;;;;;;6.67;5.67;;;;;20.26;69.79;100165.41;5073058;27;45394;-63
2022/06/24 05:01:42;;;;;;;;;7.00;5.00;;;;;20.33;70.52;100163.78;5078258;27;45587;-63
2022/06/24 05:04:07;;;;;;;;;5.67;5.67;;;;;20.34;70.30;100165.47;5077190;27;45508;-63
2022/06/24 05:06:33;;;;;;;;;6.00;6.00;;;;;20.32;70.08;100162.09;5077184;27;46109;-62
2022/06/24 05:08:58;;;;;;;;;6.67;6.67;;;;;20.33;70.01;100163.78;5074349;27;45219;-62
2022/06/24 05:11:24;;;;;;;;;7.33;5.00;;;;;20.30;70.26;100162.22;5076913;27;46072;-65
2022/06/24 05:13:49;;;;;;;;;5.33;4.67;;;;;20.35;70.08;100169.03;5071827;27;45720;-64
2022/06/24 05:16:15;;;;;;;;;2.00;2.00;;;;;20.37;70.52;100177.81;5079020;27;46062;-62
2022/06/24 05:18:40;;;;;;;;;4.00;4.00;;;;;20.37;69.03;100170.56;5074345;27;45382;-63
2022/06/24 05:21:06;;;;;;;;;6.00;5.00;;;;;20.24;69.96;100170.13;5072257;27;46065;-63
2022/06/24 05:23:31;;;;;;;;;3.67;3.67;;;;;20.17;69.50;100166.34;5075811;27;45451;-64
2022/06/24 05:25:57;;;;;;;;;5.00;5.00;;;;;20.19;70.15;100177.88;5073482;27;46994;-64
2022/06/24 05:28:22;;;;;;;;;5.67;5.67;;;;;20.14;69.76;100164.81;5075521;27;45362;-63
2022/06/24 05:30:54;;;;;;;;;6.33;6.00;;;;;20.15;70.12;100176.47;5074378;27;45506;-63
2022/06/24 05:33:19;;;;;;;;;8.33;8.33;;;;;20.11;70.37;100172.41;5075673;27;45400;-63
2022/06/24 05:35:45;;;;;;;;;6.67;5.00;;;;;20.16;70.35;100176.31;5076277;27;46094;-63
2022/06/24 05:38:10;;;;;;;;;6.00;5.00;;;;;20.21;69.99;100175.84;5075579;27;45369;-62
2022/06/24 05:40:36;;;;;;;;;7.33;7.33;;;;;20.25;69.77;100171.81;5074725;27;45460;-63
2022/06/24 05:43:01;;;;;;;;;7.33;6.33;;;;;20.29;68.37;100173.19;5075423;27;45417;-61
2022/06/24 05:45:27;;;;;;;;;6.33;6.00;;;;;20.33;69.49;100175.44;5076038;27;46363;-63
2022/06/24 05:47:52;;;;;;;;;6.33;6.33;;;;;20.37;69.10;100175.97;5075460;27;45550;-62
2022/06/24 05:50:18;;;;;;;;;10.33;7.00;;;;;20.35;69.50;100183.38;5075901;27;45697;-60
2022/06/24 05:55:27;;;;;;;;;7.33;6.67;;;;;20.41;69.55;100184.56;5076293;28;45759;-64
2022/06/24 05:57:53;;;;;;;;;5.67;5.00;;;;;20.44;68.91;100181.59;5075189;28;45547;-68
2022/06/24 06:00:18;;;;;;;;;7.00;7.00;;;;;20.48;68.76;100189.22;5076455;27;45553;-68
2022/06/24 06:02:43;;;;;;;;;3.00;3.00;;;;;20.48;69.05;100191.94;5076920;27;45388;-65
2022/06/24 06:05:09;;;;;;;;;8.00;6.00;;;;;20.48;69.01;100194.63;5076133;27;45446;-64
2022/06/24 06:07:34;;;;;;;;;9.00;7.67;;;;;20.48;68.83;100201.91;5076280;27;45342;-64
2022/06/24 06:09:59;;;;;;;;;8.00;7.00;;;;;20.47;68.02;100197.50;5069763;27;45650;-62
2022/06/24 06:12:25;;;;;;;;;5.00;5.00;;;;;20.47;68.27;100197.50;5076049;27;45523;-63
2022/06/24 06:14:50;;;;;;;;;10.00;8.00;;;;;20.46;68.28;100202.06;5076154;27;45358;-62
2022/06/24 06:17:15;;;;;;;;;7.00;7.00;;;;;20.50;67.50;100205.28;5070103;27;45528;-62
2022/06/24 06:19:41;;;;;;;;;7.67;5.00;;;;;20.51;67.73;100199.72;5075702;27;45548;-65
2022/06/24 06:22:06;;;;;;;;;8.00;7.00;;;;;20.59;66.68;100202.47;5072815;28;45448;-63
2022/06/24 06:24:32;;;;;;;;;6.33;6.33;;;;;20.55;66.99;100206.47;5075866;27;46051;-61
2022/06/24 06:26:58;;;;;;;;;5.67;5.67;;;;;20.49;66.90;100212.53;5091720;27;45391;-63
2022/06/24 06:29:24;;;;;;;;;7.00;5.33;;;;;20.47;67.06;100209.16;5074762;28;45284;-63
2022/06/24 06:31:52;;;;;;;;;6.33;4.00;;;;;20.46;67.27;100207.47;5075971;27;45596;-66
2022/06/24 06:34:19;;;;;;;;;8.67;6.00;;;;;20.41;67.05;100215.13;5075770;27;45389;-62
2022/06/24 06:36:45;;;;;;;;;5.33;4.33;;;;;20.42;67.16;100211.47;5075595;27;45491;-64
2022/06/24 06:39:10;;;;;;;;;6.00;6.00;;;;;20.41;67.41;100209.75;5075694;28;45508;-62
2022/06/24 06:41:35;;;;;;;;;9.67;7.00;;;;;20.41;67.07;100211.59;5074531;28;45590;-63
2022/06/24 06:44:01;;;;;;;;;6.00;6.00;;;;;20.44;66.91;100214.00;5075684;27;45391;-63
2022/06/24 06:46:26;;;;;;;;;6.00;5.00;;;;;20.45;66.89;100215.72;5076920;27;45270;-63
2022/06/24 06:48:52;;;;;;;;;9.00;5.00;;;;;20.45;67.10;100200.38;5079300;27;45319;-62
2022/06/24 06:51:17;;;;;;;;;6.00;6.00;;;;;20.53;67.14;100213.91;5077910;27;45719;-63
2022/06/24 06:53:43;;;;;;;;;6.67;5.33;;;;;20.64;66.04;100215.50;5076049;28;47375;-62
2022/06/24 06:56:08;;;;;;;;;6.33;6.33;;;;;20.70;66.02;100216.69;5079229;28;45415;-63
2022/06/24 06:58:34;;;;;;;;;6.00;6.00;;;;;20.81;65.46;100216.44;5079431;27;45172;-62
2022/06/24 07:01:00;;;;;;;;;4.33;4.33;;;;;20.87;65.68;100211.25;5079611;27;45385;-63
2022/06/24 07:03:25;;;;;;;;;5.00;5.00;;;;;20.98;65.43;100212.81;5078814;28;46550;-62
2022/06/24 07:05:51;;;;;;;;;8.00;5.33;;;;;21.05;65.13;100215.69;5078867;27;45286;-62
2022/06/24 07:08:16;;;;;;;;;5.00;5.00;;;;;21.07;64.66;100221.78;5078689;27;45221;-62
2022/06/24 07:10:44;;;;;;;;;7.00;5.00;;;;;21.05;64.94;100219.25;5079370;27;45540;-63
2022/06/24 07:13:10;;;;;;;;;7.00;5.00;;;;;21.10;64.41;100222.34;5078737;27;45786;-61
2022/06/24 07:15:36;;;;;;;;;5.00;5.00;;;;;21.10;64.07;100216.06;5078564;27;45383;-63
2022/06/24 07:18:01;;;;;;;;;5.00;3.67;;;;;21.11;63.84;100224.03;5079002;28;45502;-62
2022/06/24 07:20:27;;;;;;;;;4.00;4.00;;;;;21.12;64.43;100212.19;5078707;27;45439;-64
2022/06/24 07:22:52;;;;;;;;;8.33;6.00;;;;;21.19;63.51;100199.69;5078753;27;45599;-61
2022/06/24 07:25:18;;;;;;;;;5.00;5.00;;;;;21.21;63.56;100203.06;5077462;28;45335;-62
2022/06/24 07:27:43;;;;;;;;;4.33;4.00;;;;;21.23;63.68;100204.81;5079205;28;45305;-62
2022/06/24 07:30:09;;;;;;;;;6.33;5.00;;;;;21.24;63.67;100201.09;5078855;27;45559;-61
2022/06/24 07:32:35;;;;;;;;;6.67;4.33;;;;;21.24;64.40;100201.94;5078440;28;46108;-62
2022/06/24 07:35:00;;;;;;;;;6.67;6.00;;;;;21.24;64.11;100191.09;5078260;27;45295;-62
2022/06/24 07:37:25;;;;;;;;;5.67;4.00;;;;;21.30;63.75;100200.44;5076985;28;45279;-61
2022/06/24 07:39:51;;;;;;;;;7.00;4.33;;;;;21.35;63.50;100203.50;5078973;27;45581;-63
2022/06/24 07:42:16;;;;;;;;;8.00;7.00;;;;;21.35;63.15;100203.50;5078602;27;45372;-62
2022/06/24 07:44:43;;;;;;;;;5.00;5.00;;;;;21.43;63.34;100206.22;5085626;27;45400;-63
2022/06/24 07:47:09;;;;;;;;;4.00;3.67;;;;;21.51;62.46;100195.44;5076621;27;45457;-62
2022/06/24 07:49:35;;;;;;;;;4.67;4.67;;;;;21.56;62.20;100195.78;5078615;27;45310;-62
2022/06/24 07:52:00;;;;;;;;;8.33;6.00;;;;;21.65;61.96;100194.78;5077858;27;45938;-62
2022/06/24 07:54:26;;;;;;;;;4.33;4.00;;;;;21.66;62.25;100188.34;5076849;27;45465;-65
2022/06/24 07:57:00;;;;;;;;;6.00;6.00;;;;;21.73;62.58;100183.09;5077952;27;45322;-63
2022/06/24 07:59:34;;;;;;;;;6.67;5.67;;;;;21.83;62.15;100191.06;5078559;27;45396;-62
2022/06/24 08:02:02;;;;;;;;;7.33;7.00;;;;;21.93;61.76;100195.31;5077878;27;45428;-63
2022/06/24 08:04:28;;;;;;;;;7.67;5.00;;;;;22.01;61.14;100183.66;5077952;27;45346;-63
2022/06/24 08:06:54;;;;;;;;;4.00;4.00;;;;;22.06;60.40;100186.72;5078204;27;45213;-63
2022/06/24 08:09:21;;;;;;;;;4.50;4.50;;;;;22.08;60.45;100182.81;5078346;27;45571;-61
2022/06/24 08:11:46;;;;;;;;;6.75;6.00;;;;;22.17;59.80;100189.09;5075413;27;46026;-63
2022/06/24 08:14:16;;;;;;;;;6.33;5.33;;;;;22.19;60.26;100184.34;5077146;28;45279;-63
2022/06/24 08:16:42;;;;;;;;;5.00;5.00;;;;;22.21;60.31;100195.84;5077529;27;45405;-61
2022/06/24 08:19:07;;;;;;;;;7.33;7.33;;;;;22.19;59.03;100199.75;5066218;27;45374;-62
2022/06/24 08:21:32;;;;;;;;;4.00;4.00;;;;;22.19;59.49;100189.75;5057627;28;45524;-61
2022/06/24 08:23:58;;;;;;;;;5.67;5.67;;;;;22.34;59.44;100196.16;5057586;28;45266;-61
2022/06/24 08:26:24;;;;;;;;;7.00;7.00;;;;;22.55;57.86;100189.38;5068642;28;45421;-61
2022/06/24 08:28:49;;;;;;;;;7.67;7.67;;;;;22.70;58.37;100198.47;5078553;27;45342;-64
2022/06/24 08:31:15;;;;;;;;;7.00;7.00;;;;;22.82;58.72;100193.53;5076188;27;46531;-63
2022/06/24 08:33:40;;;;;;;;;6.00;6.00;;;;;22.84;57.99;100180.66;5077497;27;45471;-64
2022/06/24 08:36:06;;;;;;;;;5.00;5.00;;;;;22.93;56.89;100199.44;5078297;27;45357;-64
2022/06/24 08:38:32;;;;;;;;;5.50;5.50;;;;;22.91;55.81;100193.31;5110879;27;45368;-65
2022/06/24 08:41:01;;;;;;;;;4.00;4.00;;;;;23.01;57.05;100185.00;5078033;27;45377;-65
2022/06/24 08:43:30;;;;;;;;;5.00;5.00;;;;;23.04;55.40;100178.38;5077542;27;45549;-64
2022/06/24 08:45:57;;;;;;;;;7.75;5.25;;;;;23.04;55.71;100189.22;5077456;27;45262;-64
2022/06/24 08:48:25;;;;;;;;;3.00;3.00;;;;;23.04;56.37;100175.66;5077760;27;45647;-66
2022/06/24 08:50:51;;;;;;;;;2.25;2.25;;;;;23.11;55.83;100177.50;5076480;27;46877;-66
2022/06/24 08:53:20;;;;;;;;;5.00;5.00;;;;;23.31;55.63;100179.75;5078182;28;45310;-66
2022/06/24 08:55:50;;;;;;;;;4.00;4.00;;;;;23.38;54.30;100178.03;5077840;27;45215;-64
2022/06/24 08:58:17;;;;;;;;;5.00;3.25;;;;;23.49;54.31;100169.47;5077054;27;45545;-65
2022/06/24 09:00:43;;;;;;;;;4.75;3.50;;;;;23.50;53.74;100172.00;5075834;27;45512;-67
2022/06/24 09:03:09;;;;;;;;;4.00;3.50;;;;;23.57;52.63;100172.16;5076722;27;45192;-64
2022/06/24 09:05:36;;;;;;;;;3.00;3.00;;;;;23.54;53.71;100157.03;5076940;28;45241;-66
2022/06/24 09:08:10;;;;;;;;;3.00;3.00;;;;;23.60;53.16;100160.13;5110008;27;45328;-64
2022/06/24 09:10:39;;;;;;;;;2.00;2.00;;;;;23.74;52.50;100153.91;5076659;27;46392;-65
2022/06/24 09:13:04;;;;;;;;;3.00;3.00;;;;;23.86;53.18;100148.88;5075622;27;45515;-65
2022/06/24 09:15:30;;;;;;;;;5.00;3.00;;;;;23.97;51.81;100151.16;5077175;27;45365;-67
2022/06/24 09:17:56;;;;;;;;;3.25;3.25;;;;;23.96;52.20;100142.19;5077231;27;45606;-65
2022/06/24 09:20:24;;;;;;;;;3.25;3.25;;;;;24.01;51.83;100138.91;5076817;27;45524;-64
2022/06/24 09:23:00;;;;;;;;;3.75;3.25;;;;;24.46;51.95;100140.66;5076853;28;45256;-65
2022/06/24 09:25:26;;;;;;;;;4.00;4.00;;;;;24.97;51.14;100138.03;5076707;27;45382;-66
2022/06/24 09:27:52;;;;;;;;;3.25;3.25;;;;;25.39;50.08;100125.56;5077357;27;45247;-65
2022/06/24 09:30:18;;;;;;;;;5.00;3.75;;;;;25.94;48.58;100124.03;5076831;27;45315;-61
2022/06/24 09:32:54;;;;;;;;;2.75;1.50;;;;;26.27;48.21;100127.84;5092646;27;45474;-64
2022/06/24 09:35:21;;;;;;;;;1.60;1.60;;;;;26.43;46.00;100118.53;5076751;27;45365;-65
2022/06/24 09:37:49;;;;;;;;;1.75;1.75;;;;;26.34;46.28;100114.25;5075897;28;45482;-66
2022/06/24 09:40:23;;;;;;;;;2.00;2.00;;;;;26.48;45.93;100116.06;5075896;27;47070;-66
2022/06/24 09:43:27;;;;;;;;;1.40;1.40;;;;;26.55;46.86;100116.91;5076371;28;45405;-66
2022/06/24 09:45:53;;;;;;;;;1.40;1.40;;;;;26.41;46.52;100096.06;5056026;28;45432;-65
2022/06/24 09:48:33;;;;;;;;;1.25;1.25;;;;;26.48;46.08;100109.75;5056189;28;45382;-64
2022/06/24 09:51:04;;;;;;;;;0.60;0.60;;;;;26.37;44.31;100100.25;5062427;28;47509;-65
2022/06/24 09:53:32;;;;;;;;;1.00;1.00;;;;;26.63;47.71;100107.75;5076211;27;45261;-63
2022/06/24 09:55:59;;;;;;;;;1.00;1.00;;;;;26.69;43.40;100090.56;5075284;28;45327;-66
2022/06/24 09:58:25;;;;;;;;;2.60;2.60;;;;;27.15;43.26;100100.84;5076882;27;45382;-68
2022/06/24 10:00:51;;;;;;;;;1.80;1.80;;;;;27.63;43.50;100096.13;5076694;27;45423;-67
2022/06/24 10:03:16;;;;;;;;;1.00;1.00;;;;;28.25;43.28;100099.47;5075031;27;45467;-64
2022/06/24 10:05:45;;;;;;;;;2.00;2.00;;;;;28.69;41.22;100094.16;5076538;27;45364;-64
2022/06/24 10:08:14;;;;;;;;;1.20;0.80;;;;;29.13;40.90;100100.72;5076800;27;45551;-64
2022/06/24 10:10:47;;;;;;;;;2.00;2.00;;;;;29.33;40.05;100100.63;5074728;27;46987;-65
2022/06/24 10:13:25;;;;;;;;;3.00;2.60;;;;;29.54;39.65;100097.53;5076138;27;45225;-65
2022/06/24 10:15:53;;;;;;;;;2.00;2.00;;;;;29.75;40.38;100095.50;5091596;27;45417;-64
2022/06/24 10:18:23;;;;;;;;;1.60;1.60;;;;;29.77;39.97;100107.06;5076406;27;45250;-65
2022/06/24 10:20:50;;;;;;;;;1.00;1.00;;;;;29.53;41.45;100101.34;5075271;27;46444;-64
2022/06/24 10:23:46;;;;;;;;;1.60;1.00;;;;;29.14;39.34;100099.66;5075788;28;45351;-65
2022/06/24 10:26:22;;;;;;;;;1.00;1.00;;;;;28.67;40.49;100099.00;5076054;28;45848;-65
2022/06/24 10:28:59;;;;;;;;;1.80;1.80;;;;;28.57;39.84;100106.81;5091886;27;45495;-64
2022/06/24 10:31:57;;;;;;;;;1.00;1.00;;;;;28.52;39.91;100113.97;5074675;28;46667;-64
2022/06/24 10:34:28;;;;;;;;;1.00;1.00;;;;;28.24;39.91;100101.38;5072978;27;45349;-65
2022/06/24 10:36:57;;;;;;;;;1.00;1.00;;;;;27.90;40.31;100099.72;5076384;27;45277;-67
2022/06/24 10:39:25;;;;;;;;;1.80;1.80;;;;;27.79;40.55;100092.16;5075902;27;45179;-64
2022/06/24 10:42:20;;;;;;;;;1.60;1.60;;;;;27.60;41.35;100083.69;5075638;27;45458;-63
2022/06/24 10:44:52;;;;;;;;;0.00;0.00;;;;;27.38;40.38;100086.84;5089827;27;45547;-64
2022/06/24 10:47:19;;;;;;;;;0.80;0.80;;;;;27.18;40.65;100089.50;5074473;28;45341;-63
2022/06/24 10:49:50;;;;;;;;;1.00;1.00;;;;;26.90;40.65;100084.16;5076119;27;45494;-63
2022/06/24 10:52:35;;;;;;;;;1.00;1.00;;;;;26.58;42.02;100082.97;5074533;28;47874;-63
2022/06/24 10:55:15;;;;;;;;;2.00;2.00;;;;;26.41;41.99;100086.00;5075945;27;45355;-62
2022/06/24 10:57:41;;;;;;;;;0.80;0.80;;;;;26.42;42.22;100082.25;5076154;27;45449;-65
2022/06/24 11:00:15;;;;;;;;;2.60;1.00;;;;;26.51;41.93;100085.66;5075692;27;45536;-63
2022/06/24 11:02:41;;;;;;;;;1.20;0.00;;;;;26.48;41.97;100083.34;5075429;27;45451;-65
2022/06/24 11:05:16;;;;;;;;;1.80;1.80;;;;;26.34;42.83;100066.03;5075232;27;45440;-66
2022/06/24 11:07:46;;;;;;;;;1.00;1.00;;;;;26.24;41.76;100073.72;5075610;28;45385;-64
2022/06/24 11:10:31;;;;;;;;;0.40;0.40;;;;;26.11;42.61;100070.91;5074505;27;45317;-63
2022/06/24 11:13:02;;;;;;;;;1.50;1.50;;;;;26.21;42.21;100076.00;5074170;28;45436;-64
2022/06/24 11:15:34;;;;;;;;;1.00;1.00;;;;;26.37;40.73;100070.25;5075701;27;45427;-66
2022/06/24 11:18:08;;;;;;;;;2.40;1.40;;;;;26.37;42.15;100076.56;5075614;27;45394;-63
2022/06/24 11:20:37;;;;;;;;;1.00;1.00;;;;;26.26;40.93;100079.81;5075694;27;45598;-63
2022/06/24 11:23:12;;;;;;;;;0.80;0.80;;;;;26.12;42.06;100083.50;5075195;27;46079;-63
2022/06/24 11:25:40;;;;;;;;;1.20;1.20;;;;;26.03;41.98;100080.06;5075357;28;45439;-65
2022/06/24 11:28:20;;;;;;;;;1.00;1.00;;;;;26.01;42.59;100076.69;5074349;28;45298;-64
2022/06/24 11:30:46;;;;;;;;;0.25;0.25;;;;;26.05;42.30;100069.00;5075521;27;45373;-64
2022/06/24 11:33:12;;;;;;;;;1.00;1.00;;;;;26.22;42.34;100075.81;5076184;28;46092;-64